• Join FlightAware (Why Join?)
  • Login
  • US Flag 
02:04PM EDT


 

Airport Tracker/Info


-or-


 

Live Flight TrackerFlight Track Log ✈ UAL619 ✈ 13-Apr-2013 ✈ KSJC - KDEN

Flight Track Log - Related Links

Times and Time Zones

All times are in EDT time to prevent confusion due to time zone crossing. See the UAL619 flight status page for this flight to view local times or setup timezone preferences in your user account.

Time Position Orientation Groundspeed Altitude Reporting Facility
EDT Latitude Longitude Course Direction KTS MPH feet Rate Location/Type
11:08AM 37.4000 -121.9667 63° Northeast 201 231 2,000  Level Northern Cal TRACON
11:10AM 37.5770 -121.9500 North  Level FlightAware Approximate
11:10AM 37.4500 -121.9667 360° North 230 265 5,000  Level Northern Cal TRACON
11:10AM 37.4167 -121.9000 122° Southeast 248 285 5,000 540 Level Northern Cal TRACON
11:11AM 37.6884 -121.9735 354° North  Level FlightAware Approximate
11:12AM 37.8010 -121.9782 76° East  Level FlightAware Approximate
11:12AM 37.3500 -121.8122 134° Southeast 253 291 6,400  Level Oakland Center
11:13AM 37.8296 -121.8355 76° East  Level FlightAware Approximate
11:13AM 37.2833 -121.7581 147° Southeast 285 328 9,600  Level Oakland Center
11:14AM 37.8676 -121.6977 63° Northeast  Level FlightAware Approximate
11:14AM 37.2517 -121.8378 243° Southwest 297 342 11,900  Level Oakland Center
11:15AM 37.3219 -121.9042 323° Northwest 323 372 14,300 2,280 Climbing Oakland Center
11:16AM 37.4083 -121.9472 338° Northwest 340 391 16,600 1,980 Climbing Oakland Center
11:17AM 37.5097 -121.9225 11° North 386 444 18,400 2,160 Climbing Oakland Center
11:18AM 37.5822 -121.8133 50° Northeast 405 466 21,100 2,100 Climbing Oakland Center
11:19AM 37.6536 -121.6972 52° Northeast 419 482 22,700 1,680 Climbing Oakland Center
11:20AM 37.7289 -121.5764 52° Northeast 435 501 24,600 1,620 Climbing Oakland Center
11:21AM 37.8050 -121.4517 52° Northeast 446 513 26,100 1,320 Climbing Oakland Center
11:22AM 37.8839 -121.3231 52° Northeast 456 525 27,300 1,500 Climbing Oakland Center
11:23AM 37.9817 -121.1600 53° Northeast 478 550 29,200 2,040 Climbing Oakland Center
11:24AM 38.0361 -121.0042 66° East 493 567 31,500 1,920 Climbing Oakland Center
11:25AM 38.0672 -120.8392 76° East 484 557 33,100 1,500 Climbing Oakland Center
11:26AM 38.0975 -120.6722 77° East 487 560 34,600 1,440 Climbing Oakland Center
11:27AM 38.1275 -120.5089 77° East 479 551 36,100 1,140 Climbing Oakland Center
11:28AM 38.1575 -120.3464 77° East 475 547 37,000 420 Climbing Oakland Center
11:29AM 38.1883 -120.1831 76° East 475 547 37,000  Level Oakland Center
11:30AM 38.2175 -120.0194 77° East 477 549 37,000  Level Oakland Center
11:31AM 38.2483 -119.8525 77° East 484 557 37,000  Level Oakland Center
11:32AM 38.2772 -119.6856 78° East 485 558 37,000  Level Oakland Center
11:33AM 38.3067 -119.5183 77° East 485 558 37,000  Level Oakland Center
11:34AM 38.3394 -119.3250 78° East 489 563 37,000  Level Oakland Center
11:35AM 38.3683 -119.1572 78° East 488 562 37,000  Level Oakland Center
11:36AM 38.3975 -118.9886 78° East 490 564 37,000  Level Oakland Center
11:37AM 38.4253 -118.8192 78° East 491 565 37,000  Level Oakland Center
11:38AM 38.4536 -118.6483 78° East 494 568 37,000  Level Oakland Center
11:39AM 38.4814 -118.4789 78° East 492 566 37,000  Level Oakland Center
11:40AM 38.5097 -118.3111 78° East 488 562 37,000  Level Oakland Center
11:41AM 38.5375 -118.1417 78° East 490 564 37,000  Level Oakland Center
11:42AM 38.5658 -117.9661 78° East 492 566 37,000  Level Oakland Center
11:43AM 38.5928 -117.7939 79° East 492 566 37,000  Level Oakland Center
11:44AM 38.6200 -117.6206 79° East 494 568 37,000  Level Oakland Center
11:45AM 38.6519 -117.4142 79° East 491 565 37,000  Level Oakland Center
11:46AM 38.6786 -117.2411 79° East 492 566 37,000  Level Oakland Center
11:47AM 38.6831 -117.2058 81° East 493 567 37,000  Level Salt Lake Center
11:47AM 38.7058 -117.0667 78° East 495 570 37,000  Level Oakland Center
11:48AM 38.7339 -116.8928 78° East 496 571 37,000  Level Oakland Center
11:49AM 38.7400 -116.8581 77° East 496 571 37,000  Level Salt Lake Center
11:50AM 38.7739 -116.6881 76° East 493 567 37,000  Level Salt Lake Center
11:51AM 38.8067 -116.5161 76° East 493 567 37,000  Level Salt Lake Center
11:52AM 38.8322 -116.3775 77° East 496 571 37,000  Level Oakland Center
11:52AM 38.8442 -116.3092 77° East 496 571 37,000  Level Salt Lake Center
11:53AM 38.8758 -116.1347 77° East 500 575 37,000  Level Salt Lake Center
11:54AM 38.9078 -115.9617 77° East 498 573 37,000  Level Salt Lake Center
11:55AM 38.9397 -115.7867 77° East 502 578 37,000  Level Salt Lake Center
11:56AM 38.9711 -115.6125 77° East 501 577 37,000  Level Salt Lake Center
11:57AM 39.0017 -115.4381 77° East 501 577 37,000  Level Salt Lake Center
11:58AM 39.0325 -115.2669 77° East 503 579 37,000  Level Salt Lake Center
11:59AM 39.0633 -115.0906 77° East 505 581 37,000  Level Salt Lake Center
12:00PM 39.1000 -114.8794 77° East 504 580 37,000  Level Salt Lake Center
12:01PM 39.1300 -114.7050 77° East 502 578 37,000  Level Salt Lake Center
12:02PM 39.1608 -114.5256 77° East 510 587 37,000  Level Salt Lake Center
12:03PM 39.1892 -114.3478 78° East 508 585 37,000  Level Salt Lake Center
12:04PM 39.2186 -114.1714 78° East 505 581 37,000  Level Salt Lake Center
12:05PM 39.2494 -113.9939 77° East 506 582 37,000  Level Salt Lake Center
12:06PM 39.2769 -113.8150 79° East 508 585 37,000  Level Salt Lake Center
12:07PM 39.3056 -113.6367 78° East 508 585 37,000  Level Salt Lake Center
12:08PM 39.3342 -113.4578 78° East 508 585 37,000  Level Salt Lake Center
12:09PM 39.3672 -113.2428 79° East 508 585 37,000  Level Salt Lake Center
12:10PM 39.3958 -113.0642 78° East 508 585 37,000  Level Salt Lake Center
12:11PM 39.4233 -112.8858 79° East 508 585 37,000  Level Salt Lake Center
12:13PM 39.4424 -112.7065 79° East  Level FlightAware Approximate
12:13PM 39.4769 -112.5406 79° East 506 582 37,000  Level Salt Lake Center
12:14PM 39.5086 -112.3242 79° East 512 589 37,000  Level Salt Lake Center
12:15PM 39.5356 -112.1442 79° East 513 590 37,000  Level Salt Lake Center
12:16PM 39.5614 -111.9656 79° East 511 588 37,000  Level Salt Lake Center
12:17PM 39.5872 -111.7858 79° East 510 587 37,000  Level Salt Lake Center
12:19PM 39.6128 -111.6064 79° East 510 587 37,000  Level Salt Lake Center
12:20PM 39.6378 -111.4275 80° East 508 585 37,000  Level Salt Lake Center
12:21PM 39.6631 -111.2406 80° East 511 588 37,000  Level Salt Lake Center
12:22PM 39.6900 -111.0364 80° East 514 592 37,000  Level Salt Lake Center
12:23PM 39.7136 -110.8625 80° East 511 588 37,000  Level Salt Lake Center
12:24PM 39.7411 -110.6589 80° East 514 592 37,000  Level Salt Lake Center
12:25PM 39.7636 -110.4847 80° East 511 588 37,000  Level Salt Lake Center
12:26PM 39.7858 -110.3100 81° East 511 588 37,000  Level Salt Lake Center
12:27PM 39.8122 -110.1064 80° East 511 588 37,000  Level Salt Lake Center
12:28PM 39.8339 -109.9311 81° East 512 589 37,000  Level Salt Lake Center
12:29PM 39.8558 -109.7558 81° East 512 589 37,000  Level Salt Lake Center
12:30PM 39.8811 -109.5497 81° East 515 593 37,000  Level Salt Lake Center
12:30PM 39.8883 -109.4894 81° East 514 592 37,000  Level Denver Center
12:31PM 39.9097 -109.3122 81° East 515 593 37,000  Level Denver Center
12:32PM 39.9314 -109.1339 81° East 518 596 37,000  Level Denver Center
12:33PM 39.9489 -108.9869 81° East 517 595 37,000  Level Salt Lake Center
12:34PM 39.9694 -108.8092 81° East 515 593 37,000  Level Salt Lake Center
12:34PM 39.9758 -108.7492 82° East 511 588 37,000  Level Denver Center
12:35PM 39.9997 -108.5419 81° East 513 590 37,000  Level Denver Center
12:36PM 40.0194 -108.3636 82° East 515 593 37,000  Level Denver Center
12:37PM 40.0394 -108.1850 82° East 517 595 37,000  Level Denver Center
12:38PM 40.0614 -107.9789 82° East 515 593 37,000  Level Denver Center
12:39PM 40.0961 -107.8089 75° East 508 585 37,000  Level Denver Center
12:40PM 40.1314 -107.6072 77° East 508 585 37,000  Level Denver Center
12:41PM 40.1639 -107.4361 76° East 508 585 37,000 -60 Level Denver Center
12:42PM 40.2031 -107.2386 75° East 504 580 36,900 -780 Descending Denver Center
12:43PM 40.2228 -107.0633 82° East 508 585 35,500 -1,680 Descending Denver Center
12:45PM 40.2431 -106.8575 83° East 511 588 33,500 -2,100 Descending Denver Center
12:46PM 40.2578 -106.6831 84° East 504 580 31,200 -1,500 Descending Denver Center
12:47PM 40.2747 -106.4811 84° East 502 578 30,400 -1,440 Descending Denver Center
12:48PM 40.2881 -106.3136 84° East 487 560 28,300 -2,100 Descending Denver Center
12:49PM 40.3008 -106.1414 84° East 472 543 26,100 -2,160 Descending Denver Center
12:50PM 40.3161 -105.9742 83° East 459 528 23,900 -2,040 Descending Denver Center
12:51PM 40.3281 -105.8108 84° East 447 514 21,900 -2,160 Descending Denver Center
12:52PM 40.3414 -105.6267 85° East 434 499 19,500 -1,980 Descending Denver Center
12:53PM 40.3528 -105.4761 84° East 415 478 17,900 -1,380 Descending Denver Center
12:54PM 40.3417 -105.3275 96° East 399 459 16,700 -1,440 Descending Denver Center
12:55PM 40.3228 -105.1944 101° East 371 427 15,000 -1,500 Descending Denver Center
12:56PM 40.3044 -105.0733 101° East 344 396 13,600 -1,020 Descending Denver Center
12:57PM 40.2611 -104.9697 119° Southeast 302 348 13,000 -360 Descending Denver Center
12:58PM 40.2178 -104.8747 121° Southeast 302 348 12,900 -960 Descending Denver Center
12:59PM 40.1606 -104.7950 133° Southeast 283 326 11,100 -1,380 Descending Denver Center
01:00PM 40.0903 -104.7575 158° South 270 311 10,100 -1,200 Descending Denver Center
01:01PM 40.0322 -104.7253 157° South 223 257 8,700 -1,380 Descending Denver Center